Barboursville, VA

2:39 PM EDT on April 27, 2015 (GMT -0400)
The Vineyards | | Change Station
CLOSE
Current Station
Personal Weather Station
Location: Barboursville, VA
Elevation: 561 ft
Nearby Weather Stations

Elev 561 ft 38.19 °N, 78.29 °W | Updated 9 seconds ago

Overcast
Overcast
57.4 °F
Feels Like 57.4 °F
N
6.0
Wind Variable Wind from WNW
Gusts 8.0 mph

Today
High -- | Low -- °F
--% Chance of Precip.
Yesterday
High -- | Low -- °F
Precip. -- in
6:21 AM 8:00 PM
Waxing Gibbous, 67% visible
Pressure 29.80 in
Visibility 10.0 miles
Clouds Few 6500 ft
Overcast 8000 ft
Dew Point 36 °F
Humidity 44%
Rainfall 0.00 in
Snow Depth Not available.
UV 3 out of 12
Pollen 3.40 out of 12
Air Quality Not available.
Flu Activity Sporadic
METAR KCHO 271753Z 36005KT 10SM FEW065 OVC080 16/01 A2980 RMK AO2 SLP089 T01560011 10161 20089 55005

More Conditions Fewer Conditions

Pressure 29.80 in
Visibility 10.0 miles
Clouds Few 6500 ft
Overcast 8000 ft
Dew Point 36 °F
Humidity 44%
Rainfall 0.00 in
Snow Depth Not available.
UV 3 out of 12
Pollen 3.40 out of 12
Air Quality Not available.
Flu Activity Sporadic
METAR KCHO 271753Z 36005KT 10SM FEW065 OVC080 16/01 A2980 RMK AO2 SLP089 T01560011 10161 20089 55005

More Conditions Fewer Conditions

10-Day Weather Forecast

Almanac

Astronomy

Apr. 27, 2015 Rise Set
Actual Time
Civil Twilight
Nautical Twilight
Astronomical Twilight
Moon
Length of Visible Light
Length of Day
Tomorrow will be .
, % of the Moon is Illuminated

Today's Extremes

State Highs State Lows

Community

WunderPhotos

Upload Photos

1,817,395 photos uploaded!

WunderBlogs® & News

Nearby

Air Quality

  Air Quality AQ Index Pollutant
Not available.

Snow Depth

Station Depth Elevation

Earthquake Activity

City Distance Mag. Time & Date
Minimum magnitude displayed is 2.5.

Coastal Water Temperatures

Place Temperature

Stations

Nearby Weather Stations

Station Location Temp. Windchill Dew Point Humidity Wind Precip. Elev Updated Type